sensor_id;sensor_type;location;lat;lon;timestamp;temperature;humidity
17296;DHT22;8766;51.480;6.872;2023-02-13T00:01:09;10.30;73.80
17296;DHT22;8766;51.480;6.872;2023-02-13T00:03:35;10.30;73.80
17296;DHT22;8766;51.480;6.872;2023-02-13T00:06:02;10.30;73.80
17296;DHT22;8766;51.480;6.872;2023-02-13T00:08:29;10.30;73.80
17296;DHT22;8766;51.480;6.872;2023-02-13T00:10:56;10.30;73.80
17296;DHT22;8766;51.480;6.872;2023-02-13T00:13:23;10.30;73.80
17296;DHT22;8766;51.480;6.872;2023-02-13T00:15:59;10.30;73.80
17296;DHT22;8766;51.480;6.872;2023-02-13T00:18:27;10.30;73.80
17296;DHT22;8766;51.480;6.872;2023-02-13T00:20:59;10.30;73.80
17296;DHT22;8766;51.480;6.872;2023-02-13T00:23:26;10.30;73.90
17296;DHT22;8766;51.480;6.872;2023-02-13T00:25:53;10.30;73.80
17296;DHT22;8766;51.480;6.872;2023-02-13T00:28:19;10.30;73.80
17296;DHT22;8766;51.480;6.872;2023-02-13T00:30:46;10.30;73.80
17296;DHT22;8766;51.480;6.872;2023-02-13T00:33:15;10.30;73.80
17296;DHT22;8766;51.480;6.872;2023-02-13T00:35:42;10.30;73.80
17296;DHT22;8766;51.480;6.872;2023-02-13T00:38:08;10.30;73.80
17296;DHT22;8766;51.480;6.872;2023-02-13T00:40:35;10.30;73.80
17296;DHT22;8766;51.480;6.872;2023-02-13T00:43:02;10.30;73.80
17296;DHT22;8766;51.480;6.872;2023-02-13T00:45:29;10.30;73.80
17296;DHT22;8766;51.480;6.872;2023-02-13T00:47:56;10.30;73.80
17296;DHT22;8766;51.480;6.872;2023-02-13T00:50:24;10.30;73.80
17296;DHT22;8766;51.480;6.872;2023-02-13T00:52:51;10.30;73.80
17296;DHT22;8766;51.480;6.872;2023-02-13T00:55:17;10.30;73.80
17296;DHT22;8766;51.480;6.872;2023-02-13T00:57:44;10.30;73.80
17296;DHT22;8766;51.480;6.872;2023-02-13T01:00:12;10.30;73.80
17296;DHT22;8766;51.480;6.872;2023-02-13T01:02:39;10.30;73.80
17296;DHT22;8766;51.480;6.872;2023-02-13T01:05:07;10.30;73.80
17296;DHT22;8766;51.480;6.872;2023-02-13T01:07:35;10.20;73.80
17296;DHT22;8766;51.480;6.872;2023-02-13T01:10:02;10.20;73.80
17296;DHT22;8766;51.480;6.872;2023-02-13T01:12:29;10.30;73.80
17296;DHT22;8766;51.480;6.872;2023-02-13T01:14:55;10.30;73.90
17296;DHT22;8766;51.480;6.872;2023-02-13T01:17:22;10.30;73.90
17296;DHT22;8766;51.480;6.872;2023-02-13T01:19:49;10.30;73.80
17296;DHT22;8766;51.480;6.872;2023-02-13T01:22:16;10.30;73.80
17296;DHT22;8766;51.480;6.872;2023-02-13T01:24:44;10.30;73.80
17296;DHT22;8766;51.480;6.872;2023-02-13T01:27:11;10.30;73.80
17296;DHT22;8766;51.480;6.872;2023-02-13T01:29:38;10.30;73.80
17296;DHT22;8766;51.480;6.872;2023-02-13T01:32:05;10.30;73.80
17296;DHT22;8766;51.480;6.872;2023-02-13T01:34:32;10.30;73.80
17296;DHT22;8766;51.480;6.872;2023-02-13T01:36:59;10.30;73.80
17296;DHT22;8766;51.480;6.872;2023-02-13T01:39:26;10.30;73.80
17296;DHT22;8766;51.480;6.872;2023-02-13T01:41:54;10.30;73.80
17296;DHT22;8766;51.480;6.872;2023-02-13T01:44:47;10.30;73.80
17296;DHT22;8766;51.480;6.872;2023-02-13T01:47:19;10.30;73.90
17296;DHT22;8766;51.480;6.872;2023-02-13T01:49:48;10.20;73.80
17296;DHT22;8766;51.480;6.872;2023-02-13T01:52:16;10.20;73.80
17296;DHT22;8766;51.480;6.872;2023-02-13T01:54:44;10.20;73.80
17296;DHT22;8766;51.480;6.872;2023-02-13T01:57:17;10.20;73.80
17296;DHT22;8766;51.480;6.872;2023-02-13T01:59:48;10.20;73.90
17296;DHT22;8766;51.480;6.872;2023-02-13T02:02:16;10.20;73.80
17296;DHT22;8766;51.480;6.872;2023-02-13T02:04:46;10.20;73.80
17296;DHT22;8766;51.480;6.872;2023-02-13T02:07:16;10.20;73.80
17296;DHT22;8766;51.480;6.872;2023-02-13T02:09:44;10.20;73.80
17296;DHT22;8766;51.480;6.872;2023-02-13T02:12:18;10.20;73.80
17296;DHT22;8766;51.480;6.872;2023-02-13T02:14:48;10.20;73.90
17296;DHT22;8766;51.480;6.872;2023-02-13T02:17:16;10.20;73.90
17296;DHT22;8766;51.480;6.872;2023-02-13T02:19:47;10.20;73.90
17296;DHT22;8766;51.480;6.872;2023-02-13T02:22:33;10.20;73.90
17296;DHT22;8766;51.480;6.872;2023-02-13T02:25:45;10.20;74.00
17296;DHT22;8766;51.480;6.872;2023-02-13T02:28:30;10.20;73.90
17296;DHT22;8766;51.480;6.872;2023-02-13T02:34:24;10.10;74.00
17296;DHT22;8766;51.480;6.872;2023-02-13T02:37:04;10.10;74.00
17296;DHT22;8766;51.480;6.872;2023-02-13T02:39:43;10.10;74.00
17296;DHT22;8766;51.480;6.872;2023-02-13T02:42:19;10.10;74.00
17296;DHT22;8766;51.480;6.872;2023-02-13T02:44:54;10.10;74.00
17296;DHT22;8766;51.480;6.872;2023-02-13T02:47:25;10.00;74.00
17296;DHT22;8766;51.480;6.872;2023-02-13T02:50:23;10.00;74.00
17296;DHT22;8766;51.480;6.872;2023-02-13T02:53:03;10.00;74.00
17296;DHT22;8766;51.480;6.872;2023-02-13T02:55:37;10.00;74.00
17296;DHT22;8766;51.480;6.872;2023-02-13T02:58:16;10.10;74.10
17296;DHT22;8766;51.480;6.872;2023-02-13T03:01:05;10.00;74.00
17296;DHT22;8766;51.480;6.872;2023-02-13T03:03:51;10.00;74.70
17296;DHT22;8766;51.480;6.872;2023-02-13T03:06:39;10.00;74.00
17296;DHT22;8766;51.480;6.872;2023-02-13T03:09:13;10.00;74.00
17296;DHT22;8766;51.480;6.872;2023-02-13T03:11:58;10.00;74.00
17296;DHT22;8766;51.480;6.872;2023-02-13T03:14:43;10.00;74.00
17296;DHT22;8766;51.480;6.872;2023-02-13T03:17:11;10.00;74.00
17296;DHT22;8766;51.480;6.872;2023-02-13T03:23:11;10.00;74.00
17296;DHT22;8766;51.480;6.872;2023-02-13T03:25:49;10.00;74.00
17296;DHT22;8766;51.480;6.872;2023-02-13T03:28:24;10.00;74.10
17296;DHT22;8766;51.480;6.872;2023-02-13T03:31:19;10.00;74.10
17296;DHT22;8766;51.480;6.872;2023-02-13T03:33:55;9.90;74.00
17296;DHT22;8766;51.480;6.872;2023-02-13T03:36:33;9.90;74.10
17296;DHT22;8766;51.480;6.872;2023-02-13T03:39:25;9.90;74.00
17296;DHT22;8766;51.480;6.872;2023-02-13T03:41:59;9.90;74.00
17296;DHT22;8766;51.480;6.872;2023-02-13T03:44:30;10.00;74.10
17296;DHT22;8766;51.480;6.872;2023-02-13T03:46:59;9.90;74.00
17296;DHT22;8766;51.480;6.872;2023-02-13T03:49:29;9.90;74.00
17296;DHT22;8766;51.480;6.872;2023-02-13T03:52:20;9.90;74.00
17296;DHT22;8766;51.480;6.872;2023-02-13T03:54:52;9.90;74.00
17296;DHT22;8766;51.480;6.872;2023-02-13T03:57:40;9.90;74.00
17296;DHT22;8766;51.480;6.872;2023-02-13T04:00:28;9.90;74.00
17296;DHT22;8766;51.480;6.872;2023-02-13T04:03:03;9.90;74.00
17296;DHT22;8766;51.480;6.872;2023-02-13T04:05:37;9.90;74.10
17296;DHT22;8766;51.480;6.872;2023-02-13T04:08:05;9.90;74.20
17296;DHT22;8766;51.480;6.872;2023-02-13T04:10:36;9.90;74.20
17296;DHT22;8766;51.480;6.872;2023-02-13T04:13:11;9.80;74.20
17296;DHT22;8766;51.480;6.872;2023-02-13T04:15:42;9.80;74.20
17296;DHT22;8766;51.480;6.872;2023-02-13T04:18:14;9.80;74.20
17296;DHT22;8766;51.480;6.872;2023-02-13T04:20:42;9.80;74.20
17296;DHT22;8766;51.480;6.872;2023-02-13T04:23:10;9.80;74.20
17296;DHT22;8766;51.480;6.872;2023-02-13T04:25:40;9.80;74.30
17296;DHT22;8766;51.480;6.872;2023-02-13T04:28:07;9.80;74.30
17296;DHT22;8766;51.480;6.872;2023-02-13T04:30:34;9.80;74.40
17296;DHT22;8766;51.480;6.872;2023-02-13T04:33:01;9.80;74.40
17296;DHT22;8766;51.480;6.872;2023-02-13T04:35:28;9.70;74.30
17296;DHT22;8766;51.480;6.872;2023-02-13T04:37:54;9.70;74.30
17296;DHT22;8766;51.480;6.872;2023-02-13T04:40:21;9.70;74.30
17296;DHT22;8766;51.480;6.872;2023-02-13T04:42:49;9.70;74.30
17296;DHT22;8766;51.480;6.872;2023-02-13T04:45:16;9.70;74.30
17296;DHT22;8766;51.480;6.872;2023-02-13T04:47:49;9.70;74.30
17296;DHT22;8766;51.480;6.872;2023-02-13T04:50:16;9.70;74.40
17296;DHT22;8766;51.480;6.872;2023-02-13T04:52:42;9.70;74.30
17296;DHT22;8766;51.480;6.872;2023-02-13T04:55:09;9.70;74.30
17296;DHT22;8766;51.480;6.872;2023-02-13T04:57:36;9.70;74.30
17296;DHT22;8766;51.480;6.872;2023-02-13T05:00:06;9.70;74.30
17296;DHT22;8766;51.480;6.872;2023-02-13T05:02:33;9.70;74.40
17296;DHT22;8766;51.480;6.872;2023-02-13T05:04:59;9.70;74.30
17296;DHT22;8766;51.480;6.872;2023-02-13T05:07:26;9.70;74.40
17296;DHT22;8766;51.480;6.872;2023-02-13T05:09:53;9.80;74.40
17296;DHT22;8766;51.480;6.872;2023-02-13T05:12:20;9.70;74.30
17296;DHT22;8766;51.480;6.872;2023-02-13T05:14:47;9.70;74.30
17296;DHT22;8766;51.480;6.872;2023-02-13T05:17:15;9.70;74.40
17296;DHT22;8766;51.480;6.872;2023-02-13T05:19:42;9.70;74.40
17296;DHT22;8766;51.480;6.872;2023-02-13T05:22:09;9.70;74.40
17296;DHT22;8766;51.480;6.872;2023-02-13T05:24:54;9.70;74.40
17296;DHT22;8766;51.480;6.872;2023-02-13T05:27:21;9.70;74.40
17296;DHT22;8766;51.480;6.872;2023-02-13T05:29:48;9.70;74.40
17296;DHT22;8766;51.480;6.872;2023-02-13T05:32:16;9.70;74.40
17296;DHT22;8766;51.480;6.872;2023-02-13T05:34:43;9.70;74.40
17296;DHT22;8766;51.480;6.872;2023-02-13T05:37:10;9.70;74.40
17296;DHT22;8766;51.480;6.872;2023-02-13T05:39:36;9.70;74.40
17296;DHT22;8766;51.480;6.872;2023-02-13T05:42:03;9.70;74.50
17296;DHT22;8766;51.480;6.872;2023-02-13T05:44:31;9.70;74.50
17296;DHT22;8766;51.480;6.872;2023-02-13T05:46:58;9.60;74.50
17296;DHT22;8766;51.480;6.872;2023-02-13T05:49:26;9.60;74.50
17296;DHT22;8766;51.480;6.872;2023-02-13T05:51:53;9.60;74.60
17296;DHT22;8766;51.480;6.872;2023-02-13T05:54:20;9.60;74.60
17296;DHT22;8766;51.480;6.872;2023-02-13T05:56:46;9.60;74.60
17296;DHT22;8766;51.480;6.872;2023-02-13T05:59:13;9.50;74.60
17296;DHT22;8766;51.480;6.872;2023-02-13T06:01:40;9.50;74.70
17296;DHT22;8766;51.480;6.872;2023-02-13T06:04:07;9.50;74.70
17296;DHT22;8766;51.480;6.872;2023-02-13T06:06:35;9.50;74.70
17296;DHT22;8766;51.480;6.872;2023-02-13T06:09:02;9.50;74.70
17296;DHT22;8766;51.480;6.872;2023-02-13T06:11:29;9.50;74.80
17296;DHT22;8766;51.480;6.872;2023-02-13T06:13:56;9.40;74.80
17296;DHT22;8766;51.480;6.872;2023-02-13T06:16:23;9.30;74.90
17296;DHT22;8766;51.480;6.872;2023-02-13T06:18:49;9.30;75.10
17296;DHT22;8766;51.480;6.872;2023-02-13T06:21:16;9.20;75.30
17296;DHT22;8766;51.480;6.872;2023-02-13T06:23:44;9.10;75.50
17296;DHT22;8766;51.480;6.872;2023-02-13T06:26:11;9.00;75.80
17296;DHT22;8766;51.480;6.872;2023-02-13T06:28:38;8.90;75.90
17296;DHT22;8766;51.480;6.872;2023-02-13T06:31:05;8.80;76.00
17296;DHT22;8766;51.480;6.872;2023-02-13T06:33:32;8.80;76.20
17296;DHT22;8766;51.480;6.872;2023-02-13T06:35:59;8.70;76.30
17296;DHT22;8766;51.480;6.872;2023-02-13T06:38:26;8.70;76.40
17296;DHT22;8766;51.480;6.872;2023-02-13T06:40:59;8.60;76.40
17296;DHT22;8766;51.480;6.872;2023-02-13T06:43:26;8.60;76.60
17296;DHT22;8766;51.480;6.872;2023-02-13T06:45:53;8.60;76.60
17296;DHT22;8766;51.480;6.872;2023-02-13T06:48:20;8.50;76.60
17296;DHT22;8766;51.480;6.872;2023-02-13T06:50:47;8.50;76.70
17296;DHT22;8766;51.480;6.872;2023-02-13T06:53:16;8.40;76.70
17296;DHT22;8766;51.480;6.872;2023-02-13T06:55:43;8.40;76.70
17296;DHT22;8766;51.480;6.872;2023-02-13T06:58:11;8.40;76.90
17296;DHT22;8766;51.480;6.872;2023-02-13T07:00:38;8.40;76.90
17296;DHT22;8766;51.480;6.872;2023-02-13T07:03:05;8.40;77.00
17296;DHT22;8766;51.480;6.872;2023-02-13T07:05:50;8.40;76.90
17296;DHT22;8766;51.480;6.872;2023-02-13T07:08:22;8.30;76.90
17296;DHT22;8766;51.480;6.872;2023-02-13T07:10:49;8.30;76.90
17296;DHT22;8766;51.480;6.872;2023-02-13T07:13:17;8.30;76.90
17296;DHT22;8766;51.480;6.872;2023-02-13T07:15:44;8.30;76.90
17296;DHT22;8766;51.480;6.872;2023-02-13T07:18:11;8.30;76.90
17296;DHT22;8766;51.480;6.872;2023-02-13T07:20:38;8.30;76.90
17296;DHT22;8766;51.480;6.872;2023-02-13T07:23:05;8.30;76.80
17296;DHT22;8766;51.480;6.872;2023-02-13T07:25:33;8.30;76.80
17296;DHT22;8766;51.480;6.872;2023-02-13T07:28:01;8.30;76.70
17296;DHT22;8766;51.480;6.872;2023-02-13T07:30:30;8.30;76.70
17296;DHT22;8766;51.480;6.872;2023-02-13T07:32:58;8.40;76.70
17296;DHT22;8766;51.480;6.872;2023-02-13T07:35:25;8.40;76.70
17296;DHT22;8766;51.480;6.872;2023-02-13T07:37:52;8.40;76.70
17296;DHT22;8766;51.480;6.872;2023-02-13T07:40:19;8.40;76.70
17296;DHT22;8766;51.480;6.872;2023-02-13T07:42:46;8.50;76.60
17296;DHT22;8766;51.480;6.872;2023-02-13T07:45:13;8.50;76.50
17296;DHT22;8766;51.480;6.872;2023-02-13T07:47:42;8.50;76.40
17296;DHT22;8766;51.480;6.872;2023-02-13T07:50:09;8.60;76.40
17296;DHT22;8766;51.480;6.872;2023-02-13T07:52:36;8.60;76.20
17296;DHT22;8766;51.480;6.872;2023-02-13T07:55:05;8.70;76.10
17296;DHT22;8766;51.480;6.872;2023-02-13T07:57:32;8.90;76.00
17296;DHT22;8766;51.480;6.872;2023-02-13T08:00:00;9.00;75.60
17296;DHT22;8766;51.480;6.872;2023-02-13T08:02:29;9.10;75.30
17296;DHT22;8766;51.480;6.872;2023-02-13T08:04:58;9.20;75.10
17296;DHT22;8766;51.480;6.872;2023-02-13T08:07:26;9.30;75.10
17296;DHT22;8766;51.480;6.872;2023-02-13T08:09:53;9.80;75.10
17296;DHT22;8766;51.480;6.872;2023-02-13T08:12:37;10.30;73.20
17296;DHT22;8766;51.480;6.872;2023-02-13T08:15:05;10.70;72.30
17296;DHT22;8766;51.480;6.872;2023-02-13T08:17:32;10.90;71.50
17296;DHT22;8766;51.480;6.872;2023-02-13T08:20:00;11.00;71.30
17296;DHT22;8766;51.480;6.872;2023-02-13T08:22:27;11.00;71.40
17296;DHT22;8766;51.480;6.872;2023-02-13T08:24:54;10.90;71.80
17296;DHT22;8766;51.480;6.872;2023-02-13T08:27:21;11.40;71.30
17296;DHT22;8766;51.480;6.872;2023-02-13T08:29:49;12.30;69.30
17296;DHT22;8766;51.480;6.872;2023-02-13T08:32:16;13.40;67.10
17296;DHT22;8766;51.480;6.872;2023-02-13T08:34:42;14.50;64.70
17296;DHT22;8766;51.480;6.872;2023-02-13T08:37:11;15.40;62.80
17296;DHT22;8766;51.480;6.872;2023-02-13T08:39:37;16.00;61.50
17296;DHT22;8766;51.480;6.872;2023-02-13T08:42:04;16.40;60.70
17296;DHT22;8766;51.480;6.872;2023-02-13T08:44:31;16.80;60.30
17296;DHT22;8766;51.480;6.872;2023-02-13T08:46:58;17.20;59.70
17296;DHT22;8766;51.480;6.872;2023-02-13T08:49:28;17.70;59.10
17296;DHT22;8766;51.480;6.872;2023-02-13T08:51:55;18.00;58.80
17296;DHT22;8766;51.480;6.872;2023-02-13T08:54:23;18.20;58.60
17296;DHT22;8766;51.480;6.872;2023-02-13T08:56:50;18.40;58.60
17296;DHT22;8766;51.480;6.872;2023-02-13T08:59:17;18.70;58.30
17296;DHT22;8766;51.480;6.872;2023-02-13T09:01:43;19.10;57.70
17296;DHT22;8766;51.480;6.872;2023-02-13T09:04:10;19.70;57.00
17296;DHT22;8766;51.480;6.872;2023-02-13T09:06:40;20.10;56.40
17296;DHT22;8766;51.480;6.872;2023-02-13T09:09:07;20.50;56.10
17296;DHT22;8766;51.480;6.872;2023-02-13T09:11:35;20.90;55.50
17296;DHT22;8766;51.480;6.872;2023-02-13T09:14:02;21.40;55.00
17296;DHT22;8766;51.480;6.872;2023-02-13T09:16:29;21.90;54.40
17296;DHT22;8766;51.480;6.872;2023-02-13T09:18:56;22.30;53.90
17296;DHT22;8766;51.480;6.872;2023-02-13T09:21:22;22.40;53.70
17296;DHT22;8766;51.480;6.872;2023-02-13T09:23:50;22.60;53.60
17296;DHT22;8766;51.480;6.872;2023-02-13T09:26:18;22.90;53.50
17296;DHT22;8766;51.480;6.872;2023-02-13T09:28:46;23.00;53.40
17296;DHT22;8766;51.480;6.872;2023-02-13T09:31:15;23.20;53.20
17296;DHT22;8766;51.480;6.872;2023-02-13T09:33:42;23.40;53.10
17296;DHT22;8766;51.480;6.872;2023-02-13T09:36:11;23.30;53.40
17296;DHT22;8766;51.480;6.872;2023-02-13T09:38:39;22.90;54.10
17296;DHT22;8766;51.480;6.872;2023-02-13T09:41:09;22.20;55.20
17296;DHT22;8766;51.480;6.872;2023-02-13T09:43:42;21.50;56.70
17296;DHT22;8766;51.480;6.872;2023-02-13T09:46:14;21.20;57.50
17296;DHT22;8766;51.480;6.872;2023-02-13T09:48:44;20.80;58.20
17296;DHT22;8766;51.480;6.872;2023-02-13T09:51:15;20.30;58.90
17296;DHT22;8766;51.480;6.872;2023-02-13T09:53:47;20.00;59.60
17296;DHT22;8766;51.480;6.872;2023-02-13T09:56:20;19.80;59.90
17296;DHT22;8766;51.480;6.872;2023-02-13T09:58:51;19.90;59.80
17296;DHT22;8766;51.480;6.872;2023-02-13T10:01:27;20.10;59.50
17296;DHT22;8766;51.480;6.872;2023-02-13T10:04:11;20.50;58.80
17296;DHT22;8766;51.480;6.872;2023-02-13T10:06:42;21.20;57.70
17296;DHT22;8766;51.480;6.872;2023-02-13T10:09:21;21.80;56.60
17296;DHT22;8766;51.480;6.872;2023-02-13T10:12:17;22.40;55.80
17296;DHT22;8766;51.480;6.872;2023-02-13T10:14:53;22.80;55.10
17296;DHT22;8766;51.480;6.872;2023-02-13T10:17:30;23.00;54.90
17296;DHT22;8766;51.480;6.872;2023-02-13T10:20:01;23.20;54.50
17296;DHT22;8766;51.480;6.872;2023-02-13T10:22:32;23.40;54.30
17296;DHT22;8766;51.480;6.872;2023-02-13T10:25:03;23.50;54.30
17296;DHT22;8766;51.480;6.872;2023-02-13T10:27:34;23.50;54.30
17296;DHT22;8766;51.480;6.872;2023-02-13T10:30:06;23.50;54.30
17296;DHT22;8766;51.480;6.872;2023-02-13T10:32:48;23.40;54.20
17296;DHT22;8766;51.480;6.872;2023-02-13T10:35:22;22.90;54.70
17296;DHT22;8766;51.480;6.872;2023-02-13T10:37:54;22.50;55.30
17296;DHT22;8766;51.480;6.872;2023-02-13T10:40:30;22.00;55.80
17296;DHT22;8766;51.480;6.872;2023-02-13T10:43:01;21.40;56.60
17296;DHT22;8766;51.480;6.872;2023-02-13T10:45:44;21.00;57.00
17296;DHT22;8766;51.480;6.872;2023-02-13T10:48:28;20.60;57.50
17296;DHT22;8766;51.480;6.872;2023-02-13T10:51:03;19.80;58.40
17296;DHT22;8766;51.480;6.872;2023-02-13T10:53:44;19.10;59.80
17296;DHT22;8766;51.480;6.872;2023-02-13T10:56:26;18.40;61.40
17296;DHT22;8766;51.480;6.872;2023-02-13T10:59:05;17.60;62.70
17296;DHT22;8766;51.480;6.872;2023-02-13T11:01:38;17.10;63.90
17296;DHT22;8766;51.480;6.872;2023-02-13T11:04:10;16.70;64.90
17296;DHT22;8766;51.480;6.872;2023-02-13T11:06:42;16.30;65.60
17296;DHT22;8766;51.480;6.872;2023-02-13T11:09:10;16.00;66.20
17296;DHT22;8766;51.480;6.872;2023-02-13T11:11:41;15.80;66.60
17296;DHT22;8766;51.480;6.872;2023-02-13T11:14:14;15.60;66.90
17296;DHT22;8766;51.480;6.872;2023-02-13T11:16:55;15.40;67.20
17296;DHT22;8766;51.480;6.872;2023-02-13T11:19:29;15.20;67.40
17296;DHT22;8766;51.480;6.872;2023-02-13T11:22:00;15.10;67.50
17296;DHT22;8766;51.480;6.872;2023-02-13T11:24:29;15.00;67.50
17296;DHT22;8766;51.480;6.872;2023-02-13T11:27:02;15.00;67.60
17296;DHT22;8766;51.480;6.872;2023-02-13T11:29:36;14.80;67.50
17296;DHT22;8766;51.480;6.872;2023-02-13T11:32:08;14.80;67.60
17296;DHT22;8766;51.480;6.872;2023-02-13T11:34:45;14.70;67.60
17296;DHT22;8766;51.480;6.872;2023-02-13T11:37:18;14.70;67.80
17296;DHT22;8766;51.480;6.872;2023-02-13T11:39:47;14.60;67.80
17296;DHT22;8766;51.480;6.872;2023-02-13T11:43:02;14.60;67.70
17296;DHT22;8766;51.480;6.872;2023-02-13T11:45:41;14.60;67.60
17296;DHT22;8766;51.480;6.872;2023-02-13T11:48:19;14.50;67.50
17296;DHT22;8766;51.480;6.872;2023-02-13T11:50:52;14.50;67.60
17296;DHT22;8766;51.480;6.872;2023-02-13T11:53:40;14.50;67.50
17296;DHT22;8766;51.480;6.872;2023-02-13T11:56:09;14.50;67.60
17296;DHT22;8766;51.480;6.872;2023-02-13T11:59:17;14.40;67.30
17296;DHT22;8766;51.480;6.872;2023-02-13T12:02:58;14.50;67.30
17296;DHT22;8766;51.480;6.872;2023-02-13T12:06:04;14.50;67.10
17296;DHT22;8766;51.480;6.872;2023-02-13T12:08:33;14.50;67.00
17296;DHT22;8766;51.480;6.872;2023-02-13T12:11:04;14.50;67.00
17296;DHT22;8766;51.480;6.872;2023-02-13T12:13:36;14.40;66.90
17296;DHT22;8766;51.480;6.872;2023-02-13T12:16:13;14.40;67.00
17296;DHT22;8766;51.480;6.872;2023-02-13T12:18:47;14.40;67.00
17296;DHT22;8766;51.480;6.872;2023-02-13T12:21:29;14.40;67.00
17296;DHT22;8766;51.480;6.872;2023-02-13T12:24:11;14.40;67.00
17296;DHT22;8766;51.480;6.872;2023-02-13T12:26:47;14.40;66.90
17296;DHT22;8766;51.480;6.872;2023-02-13T12:29:39;14.40;66.90
17296;DHT22;8766;51.480;6.872;2023-02-13T12:32:18;14.40;66.90
17296;DHT22;8766;51.480;6.872;2023-02-13T12:38:13;14.40;66.80
17296;DHT22;8766;51.480;6.872;2023-02-13T12:40:59;14.40;66.70
17296;DHT22;8766;51.480;6.872;2023-02-13T12:44:04;14.50;66.70
17296;DHT22;8766;51.480;6.872;2023-02-13T12:46:36;14.40;66.50
17296;DHT22;8766;51.480;6.872;2023-02-13T12:49:18;14.50;66.40
17296;DHT22;8766;51.480;6.872;2023-02-13T12:51:55;14.50;66.40
17296;DHT22;8766;51.480;6.872;2023-02-13T12:54:44;14.50;66.30
17296;DHT22;8766;51.480;6.872;2023-02-13T12:57:23;14.50;66.30
17296;DHT22;8766;51.480;6.872;2023-02-13T13:00:08;14.50;66.20
17296;DHT22;8766;51.480;6.872;2023-02-13T13:06:03;14.60;66.20
17296;DHT22;8766;51.480;6.872;2023-02-13T13:09:11;14.60;66.10
17296;DHT22;8766;51.480;6.872;2023-02-13T13:12:12;14.60;66.00
17296;DHT22;8766;51.480;6.872;2023-02-13T13:14:45;14.60;65.90
17296;DHT22;8766;51.480;6.872;2023-02-13T13:17:23;14.60;65.80
17296;DHT22;8766;51.480;6.872;2023-02-13T13:19:59;14.60;65.80
17296;DHT22;8766;51.480;6.872;2023-02-13T13:22:32;14.70;65.70
17296;DHT22;8766;51.480;6.872;2023-02-13T13:25:07;14.70;65.70
17296;DHT22;8766;51.480;6.872;2023-02-13T13:27:41;14.70;65.70
17296;DHT22;8766;51.480;6.872;2023-02-13T13:30:15;14.70;65.70
17296;DHT22;8766;51.480;6.872;2023-02-13T13:32:48;14.70;65.70
17296;DHT22;8766;51.480;6.872;2023-02-13T13:35:19;14.70;65.60
17296;DHT22;8766;51.480;6.872;2023-02-13T13:37:52;14.70;65.60
17296;DHT22;8766;51.480;6.872;2023-02-13T13:40:35;14.80;65.60
17296;DHT22;8766;51.480;6.872;2023-02-13T13:43:16;14.80;65.60
17296;DHT22;8766;51.480;6.872;2023-02-13T13:45:49;14.80;65.50
17296;DHT22;8766;51.480;6.872;2023-02-13T13:48:49;14.80;65.50
17296;DHT22;8766;51.480;6.872;2023-02-13T13:51:19;14.80;65.50
17296;DHT22;8766;51.480;6.872;2023-02-13T13:57:06;14.80;65.50
17296;DHT22;8766;51.480;6.872;2023-02-13T14:03:23;14.80;65.50
17296;DHT22;8766;51.480;6.872;2023-02-13T14:06:01;14.80;65.40
17296;DHT22;8766;51.480;6.872;2023-02-13T14:08:57;14.80;65.40
17296;DHT22;8766;51.480;6.872;2023-02-13T14:11:59;14.80;65.40
17296;DHT22;8766;51.480;6.872;2023-02-13T14:14:44;14.80;65.30
17296;DHT22;8766;51.480;6.872;2023-02-13T14:17:14;14.80;65.30
17296;DHT22;8766;51.480;6.872;2023-02-13T14:19:47;14.80;65.30
17296;DHT22;8766;51.480;6.872;2023-02-13T14:22:31;14.80;65.30
17296;DHT22;8766;51.480;6.872;2023-02-13T14:25:01;14.80;65.30
17296;DHT22;8766;51.480;6.872;2023-02-13T14:27:30;14.80;65.30
17296;DHT22;8766;51.480;6.872;2023-02-13T14:30:00;14.80;65.30
17296;DHT22;8766;51.480;6.872;2023-02-13T14:32:30;14.80;65.30
17296;DHT22;8766;51.480;6.872;2023-02-13T14:35:04;14.80;65.20
17296;DHT22;8766;51.480;6.872;2023-02-13T14:37:35;14.80;65.20
17296;DHT22;8766;51.480;6.872;2023-02-13T14:40:41;14.80;65.10
17296;DHT22;8766;51.480;6.872;2023-02-13T14:43:28;14.90;65.20
17296;DHT22;8766;51.480;6.872;2023-02-13T14:46:00;14.80;65.10
17296;DHT22;8766;51.480;6.872;2023-02-13T14:49:22;14.90;65.10
17296;DHT22;8766;51.480;6.872;2023-02-13T14:52:29;14.90;65.30
17296;DHT22;8766;51.480;6.872;2023-02-13T14:58:46;14.90;64.90
17296;DHT22;8766;51.480;6.872;2023-02-13T15:01:24;14.90;64.80
17296;DHT22;8766;51.480;6.872;2023-02-13T15:03:57;14.90;64.90
17296;DHT22;8766;51.480;6.872;2023-02-13T15:06:28;14.90;64.80
17296;DHT22;8766;51.480;6.872;2023-02-13T15:09:02;14.90;64.80
17296;DHT22;8766;51.480;6.872;2023-02-13T15:11:45;15.00;64.80
17296;DHT22;8766;51.480;6.872;2023-02-13T15:17:50;15.00;64.70
17296;DHT22;8766;51.480;6.872;2023-02-13T15:20:22;15.00;64.70
17296;DHT22;8766;51.480;6.872;2023-02-13T15:22:51;15.00;64.70
17296;DHT22;8766;51.480;6.872;2023-02-13T15:25:30;15.00;64.70
17296;DHT22;8766;51.480;6.872;2023-02-13T15:28:00;15.00;64.80
17296;DHT22;8766;51.480;6.872;2023-02-13T15:30:30;15.00;64.80
17296;DHT22;8766;51.480;6.872;2023-02-13T15:32:59;14.90;64.80
17296;DHT22;8766;51.480;6.872;2023-02-13T15:35:31;14.90;64.80
17296;DHT22;8766;51.480;6.872;2023-02-13T15:38:17;14.90;65.00
17296;DHT22;8766;51.480;6.872;2023-02-13T15:40:46;14.80;65.20
17296;DHT22;8766;51.480;6.872;2023-02-13T15:43:22;14.70;65.30
17296;DHT22;8766;51.480;6.872;2023-02-13T15:45:52;14.60;65.40
17296;DHT22;8766;51.480;6.872;2023-02-13T15:48:19;14.60;65.60
17296;DHT22;8766;51.480;6.872;2023-02-13T15:50:48;14.50;65.70
17296;DHT22;8766;51.480;6.872;2023-02-13T15:57:10;14.30;66.20
17296;DHT22;8766;51.480;6.872;2023-02-13T15:59:39;14.10;66.50
17296;DHT22;8766;51.480;6.872;2023-02-13T16:02:12;14.00;66.70
17296;DHT22;8766;51.480;6.872;2023-02-13T16:05:13;13.90;66.90
17296;DHT22;8766;51.480;6.872;2023-02-13T16:07:48;13.80;67.10
17296;DHT22;8766;51.480;6.872;2023-02-13T16:10:22;13.70;67.30
17296;DHT22;8766;51.480;6.872;2023-02-13T16:12:53;13.70;67.50
17296;DHT22;8766;51.480;6.872;2023-02-13T16:15:24;13.60;67.70
17296;DHT22;8766;51.480;6.872;2023-02-13T16:17:54;13.50;67.80
17296;DHT22;8766;51.480;6.872;2023-02-13T16:20:24;13.50;67.90
17296;DHT22;8766;51.480;6.872;2023-02-13T16:22:53;13.40;67.90
17296;DHT22;8766;51.480;6.872;2023-02-13T16:25:23;13.40;68.00
17296;DHT22;8766;51.480;6.872;2023-02-13T16:27:56;13.40;68.10
17296;DHT22;8766;51.480;6.872;2023-02-13T16:30:31;13.30;68.10
17296;DHT22;8766;51.480;6.872;2023-02-13T16:33:25;13.30;68.20
17296;DHT22;8766;51.480;6.872;2023-02-13T16:35:54;13.30;68.30
17296;DHT22;8766;51.480;6.872;2023-02-13T16:38:30;13.20;68.30
17296;DHT22;8766;51.480;6.872;2023-02-13T16:40:59;13.20;68.40
17296;DHT22;8766;51.480;6.872;2023-02-13T16:43:36;13.10;68.40
17296;DHT22;8766;51.480;6.872;2023-02-13T16:46:26;13.10;68.60
17296;DHT22;8766;51.480;6.872;2023-02-13T16:51:51;12.90;68.70
17296;DHT22;8766;51.480;6.872;2023-02-13T16:54:32;12.90;68.90
17296;DHT22;8766;51.480;6.872;2023-02-13T16:57:04;12.80;69.10
17296;DHT22;8766;51.480;6.872;2023-02-13T16:59:52;12.70;69.20
17296;DHT22;8766;51.480;6.872;2023-02-13T17:02:23;12.70;69.40